sensor_id;sensor_type;location;lat;lon;timestamp;P1;durP1;ratioP1;P2;durP2;ratioP2
56830;SDS011;42713;42.676;23.352;2024-02-23T00:01:49;16.08;;;7.90;;
56830;SDS011;42713;42.676;23.352;2024-02-23T00:04:15;15.10;;;7.22;;
56830;SDS011;42713;42.676;23.352;2024-02-23T00:06:41;14.48;;;7.53;;
56830;SDS011;42713;42.676;23.352;2024-02-23T00:09:06;12.98;;;6.88;;
56830;SDS011;42713;42.676;23.352;2024-02-23T00:11:32;17.30;;;7.10;;
56830;SDS011;42713;42.676;23.352;2024-02-23T00:13:58;15.20;;;7.38;;
56830;SDS011;42713;42.676;23.352;2024-02-23T00:16:24;20.13;;;7.35;;
56830;SDS011;42713;42.676;23.352;2024-02-23T00:18:51;15.70;;;7.30;;
56830;SDS011;42713;42.676;23.352;2024-02-23T00:21:17;17.02;;;7.43;;
56830;SDS011;42713;42.676;23.352;2024-02-23T00:23:42;18.02;;;7.20;;
56830;SDS011;42713;42.676;23.352;2024-02-23T00:26:08;16.85;;;7.53;;
56830;SDS011;42713;42.676;23.352;2024-02-23T00:28:33;14.43;;;7.25;;
56830;SDS011;42713;42.676;23.352;2024-02-23T00:30:59;12.75;;;6.63;;
56830;SDS011;42713;42.676;23.352;2024-02-23T00:33:24;16.60;;;7.72;;
56830;SDS011;42713;42.676;23.352;2024-02-23T00:35:50;16.33;;;6.93;;
56830;SDS011;42713;42.676;23.352;2024-02-23T00:38:15;15.93;;;7.25;;
56830;SDS011;42713;42.676;23.352;2024-02-23T00:40:40;15.13;;;7.85;;
56830;SDS011;42713;42.676;23.352;2024-02-23T00:43:06;17.05;;;7.82;;
56830;SDS011;42713;42.676;23.352;2024-02-23T00:45:31;17.88;;;8.02;;
56830;SDS011;42713;42.676;23.352;2024-02-23T00:47:57;20.60;;;8.80;;
56830;SDS011;42713;42.676;23.352;2024-02-23T00:50:22;17.58;;;8.43;;
56830;SDS011;42713;42.676;23.352;2024-02-23T00:52:52;16.50;;;7.95;;
56830;SDS011;42713;42.676;23.352;2024-02-23T00:55:18;17.05;;;7.63;;
56830;SDS011;42713;42.676;23.352;2024-02-23T00:57:44;14.85;;;7.05;;
56830;SDS011;42713;42.676;23.352;2024-02-23T01:00:11;20.75;;;7.13;;
56830;SDS011;42713;42.676;23.352;2024-02-23T01:02:37;14.82;;;6.82;;
56830;SDS011;42713;42.676;23.352;2024-02-23T01:05:03;13.32;;;6.72;;
56830;SDS011;42713;42.676;23.352;2024-02-23T01:07:29;14.40;;;6.85;;
56830;SDS011;42713;42.676;23.352;2024-02-23T01:09:55;14.35;;;6.82;;
56830;SDS011;42713;42.676;23.352;2024-02-23T01:12:21;13.75;;;7.03;;
56830;SDS011;42713;42.676;23.352;2024-02-23T01:14:46;13.07;;;6.57;;
56830;SDS011;42713;42.676;23.352;2024-02-23T01:17:13;12.20;;;6.30;;
56830;SDS011;42713;42.676;23.352;2024-02-23T01:19:40;16.42;;;6.78;;
56830;SDS011;42713;42.676;23.352;2024-02-23T01:22:06;13.70;;;7.32;;
56830;SDS011;42713;42.676;23.352;2024-02-23T01:24:31;12.52;;;6.15;;
56830;SDS011;42713;42.676;23.352;2024-02-23T01:26:59;13.30;;;6.72;;
56830;SDS011;42713;42.676;23.352;2024-02-23T01:29:43;13.52;;;6.45;;
56830;SDS011;42713;42.676;23.352;2024-02-23T01:32:08;13.02;;;6.80;;
56830;SDS011;42713;42.676;23.352;2024-02-23T01:34:33;12.68;;;6.82;;
56830;SDS011;42713;42.676;23.352;2024-02-23T01:36:59;12.90;;;6.68;;
56830;SDS011;42713;42.676;23.352;2024-02-23T01:39:24;14.30;;;7.25;;
56830;SDS011;42713;42.676;23.352;2024-02-23T01:41:50;13.57;;;6.78;;
56830;SDS011;42713;42.676;23.352;2024-02-23T01:44:15;13.15;;;6.68;;
56830;SDS011;42713;42.676;23.352;2024-02-23T01:46:42;15.23;;;7.05;;
56830;SDS011;42713;42.676;23.352;2024-02-23T01:49:09;16.20;;;7.10;;
56830;SDS011;42713;42.676;23.352;2024-02-23T01:51:34;13.90;;;7.70;;
56830;SDS011;42713;42.676;23.352;2024-02-23T01:54:00;20.20;;;8.45;;
56830;SDS011;42713;42.676;23.352;2024-02-23T01:56:26;21.13;;;10.23;;
56830;SDS011;42713;42.676;23.352;2024-02-23T01:58:52;17.40;;;7.97;;
56830;SDS011;42713;42.676;23.352;2024-02-23T02:01:19;15.75;;;7.55;;
56830;SDS011;42713;42.676;23.352;2024-02-23T02:03:45;16.80;;;8.00;;
56830;SDS011;42713;42.676;23.352;2024-02-23T02:06:10;14.10;;;6.53;;
56830;SDS011;42713;42.676;23.352;2024-02-23T02:08:37;14.45;;;7.13;;
56830;SDS011;42713;42.676;23.352;2024-02-23T02:11:03;15.45;;;7.57;;
56830;SDS011;42713;42.676;23.352;2024-02-23T02:13:29;15.32;;;7.30;;
56830;SDS011;42713;42.676;23.352;2024-02-23T02:15:55;15.15;;;7.72;;
56830;SDS011;42713;42.676;23.352;2024-02-23T02:18:22;16.52;;;7.18;;
56830;SDS011;42713;42.676;23.352;2024-02-23T02:20:51;12.32;;;6.38;;
56830;SDS011;42713;42.676;23.352;2024-02-23T02:25:44;12.43;;;6.72;;
56830;SDS011;42713;42.676;23.352;2024-02-23T02:28:09;12.23;;;6.13;;
56830;SDS011;42713;42.676;23.352;2024-02-23T02:30:38;13.65;;;7.22;;
56830;SDS011;42713;42.676;23.352;2024-02-23T02:33:03;11.65;;;5.75;;
56830;SDS011;42713;42.676;23.352;2024-02-23T02:35:29;13.55;;;6.53;;
56830;SDS011;42713;42.676;23.352;2024-02-23T02:37:54;15.50;;;6.45;;
56830;SDS011;42713;42.676;23.352;2024-02-23T02:40:20;12.48;;;6.70;;
56830;SDS011;42713;42.676;23.352;2024-02-23T02:42:45;11.60;;;6.53;;
56830;SDS011;42713;42.676;23.352;2024-02-23T02:45:11;12.95;;;6.82;;
56830;SDS011;42713;42.676;23.352;2024-02-23T02:47:36;15.23;;;6.25;;
56830;SDS011;42713;42.676;23.352;2024-02-23T02:50:02;13.60;;;6.30;;
56830;SDS011;42713;42.676;23.352;2024-02-23T02:52:27;13.57;;;7.45;;
56830;SDS011;42713;42.676;23.352;2024-02-23T02:54:53;15.90;;;6.88;;
56830;SDS011;42713;42.676;23.352;2024-02-23T02:57:19;13.48;;;7.20;;
56830;SDS011;42713;42.676;23.352;2024-02-23T02:59:45;14.45;;;6.85;;
56830;SDS011;42713;42.676;23.352;2024-02-23T03:02:11;13.00;;;6.57;;
56830;SDS011;42713;42.676;23.352;2024-02-23T03:04:37;12.77;;;6.35;;
56830;SDS011;42713;42.676;23.352;2024-02-23T03:07:03;13.05;;;6.47;;
56830;SDS011;42713;42.676;23.352;2024-02-23T03:09:28;13.10;;;6.45;;
56830;SDS011;42713;42.676;23.352;2024-02-23T03:11:54;14.80;;;6.88;;
56830;SDS011;42713;42.676;23.352;2024-02-23T03:14:19;18.48;;;8.23;;
56830;SDS011;42713;42.676;23.352;2024-02-23T03:16:45;15.05;;;7.32;;
56830;SDS011;42713;42.676;23.352;2024-02-23T03:19:12;13.63;;;7.00;;
56830;SDS011;42713;42.676;23.352;2024-02-23T03:21:38;14.07;;;7.63;;
56830;SDS011;42713;42.676;23.352;2024-02-23T03:24:03;14.07;;;6.18;;
56830;SDS011;42713;42.676;23.352;2024-02-23T03:26:29;14.07;;;6.95;;
56830;SDS011;42713;42.676;23.352;2024-02-23T03:28:55;14.18;;;7.25;;
56830;SDS011;42713;42.676;23.352;2024-02-23T03:31:20;14.02;;;6.97;;
56830;SDS011;42713;42.676;23.352;2024-02-23T03:33:46;14.98;;;7.35;;
56830;SDS011;42713;42.676;23.352;2024-02-23T03:36:11;13.50;;;7.07;;
56830;SDS011;42713;42.676;23.352;2024-02-23T03:38:37;14.73;;;7.65;;
56830;SDS011;42713;42.676;23.352;2024-02-23T03:41:02;16.00;;;7.32;;
56830;SDS011;42713;42.676;23.352;2024-02-23T03:43:28;15.02;;;6.75;;
56830;SDS011;42713;42.676;23.352;2024-02-23T03:45:54;14.45;;;7.35;;
56830;SDS011;42713;42.676;23.352;2024-02-23T03:48:19;12.60;;;7.30;;
56830;SDS011;42713;42.676;23.352;2024-02-23T03:50:45;14.35;;;7.93;;
56830;SDS011;42713;42.676;23.352;2024-02-23T03:53:11;14.98;;;7.30;;
56830;SDS011;42713;42.676;23.352;2024-02-23T03:55:37;14.77;;;7.47;;
56830;SDS011;42713;42.676;23.352;2024-02-23T03:58:02;13.63;;;7.05;;
56830;SDS011;42713;42.676;23.352;2024-02-23T04:00:28;13.77;;;7.25;;
56830;SDS011;42713;42.676;23.352;2024-02-23T04:02:53;13.48;;;7.18;;
56830;SDS011;42713;42.676;23.352;2024-02-23T04:05:19;14.10;;;7.07;;
56830;SDS011;42713;42.676;23.352;2024-02-23T04:07:44;16.00;;;7.07;;
56830;SDS011;42713;42.676;23.352;2024-02-23T04:10:09;14.13;;;7.35;;
56830;SDS011;42713;42.676;23.352;2024-02-23T04:12:35;14.18;;;7.88;;
56830;SDS011;42713;42.676;23.352;2024-02-23T04:15:00;14.85;;;7.75;;
56830;SDS011;42713;42.676;23.352;2024-02-23T04:17:26;17.45;;;7.03;;
56830;SDS011;42713;42.676;23.352;2024-02-23T04:19:51;14.00;;;7.63;;
56830;SDS011;42713;42.676;23.352;2024-02-23T04:22:17;14.98;;;7.57;;
56830;SDS011;42713;42.676;23.352;2024-02-23T04:24:42;14.63;;;7.88;;
56830;SDS011;42713;42.676;23.352;2024-02-23T04:27:08;14.73;;;7.65;;
56830;SDS011;42713;42.676;23.352;2024-02-23T04:29:34;14.85;;;7.70;;
56830;SDS011;42713;42.676;23.352;2024-02-23T04:32:00;17.10;;;7.35;;
56830;SDS011;42713;42.676;23.352;2024-02-23T04:34:26;15.30;;;7.70;;
56830;SDS011;42713;42.676;23.352;2024-02-23T04:36:52;16.35;;;8.18;;
56830;SDS011;42713;42.676;23.352;2024-02-23T04:39:18;16.50;;;7.35;;
56830;SDS011;42713;42.676;23.352;2024-02-23T04:41:43;18.60;;;7.82;;
56830;SDS011;42713;42.676;23.352;2024-02-23T04:44:09;16.40;;;8.30;;
56830;SDS011;42713;42.676;23.352;2024-02-23T04:46:34;15.40;;;8.02;;
56830;SDS011;42713;42.676;23.352;2024-02-23T04:49:00;15.32;;;7.85;;
56830;SDS011;42713;42.676;23.352;2024-02-23T04:51:26;16.50;;;8.00;;
56830;SDS011;42713;42.676;23.352;2024-02-23T04:53:52;16.40;;;8.45;;
56830;SDS011;42713;42.676;23.352;2024-02-23T04:56:17;14.93;;;8.70;;
56830;SDS011;42713;42.676;23.352;2024-02-23T04:58:43;16.75;;;7.93;;
56830;SDS011;42713;42.676;23.352;2024-02-23T05:01:28;17.30;;;8.70;;
56830;SDS011;42713;42.676;23.352;2024-02-23T05:03:53;13.75;;;8.10;;
56830;SDS011;42713;42.676;23.352;2024-02-23T05:06:19;14.45;;;7.88;;
56830;SDS011;42713;42.676;23.352;2024-02-23T05:08:44;16.25;;;8.40;;
56830;SDS011;42713;42.676;23.352;2024-02-23T05:11:09;15.45;;;8.10;;
56830;SDS011;42713;42.676;23.352;2024-02-23T05:13:35;15.90;;;8.00;;
56830;SDS011;42713;42.676;23.352;2024-02-23T05:16:01;15.68;;;8.50;;
56830;SDS011;42713;42.676;23.352;2024-02-23T05:18:27;18.02;;;8.43;;
56830;SDS011;42713;42.676;23.352;2024-02-23T05:20:53;15.98;;;8.48;;
56830;SDS011;42713;42.676;23.352;2024-02-23T05:23:18;17.60;;;8.85;;
56830;SDS011;42713;42.676;23.352;2024-02-23T05:25:44;17.75;;;8.25;;
56830;SDS011;42713;42.676;23.352;2024-02-23T05:28:09;20.90;;;9.25;;
56830;SDS011;42713;42.676;23.352;2024-02-23T05:30:36;20.17;;;10.20;;
56830;SDS011;42713;42.676;23.352;2024-02-23T05:33:20;17.58;;;8.65;;
56830;SDS011;42713;42.676;23.352;2024-02-23T05:35:46;21.23;;;8.80;;
56830;SDS011;42713;42.676;23.352;2024-02-23T05:38:14;19.80;;;8.80;;
56830;SDS011;42713;42.676;23.352;2024-02-23T05:40:39;16.05;;;8.30;;
56830;SDS011;42713;42.676;23.352;2024-02-23T05:43:05;16.90;;;8.73;;
56830;SDS011;42713;42.676;23.352;2024-02-23T05:45:30;16.52;;;8.75;;
56830;SDS011;42713;42.676;23.352;2024-02-23T05:47:56;22.27;;;9.70;;
56830;SDS011;42713;42.676;23.352;2024-02-23T05:50:21;15.68;;;9.00;;
56830;SDS011;42713;42.676;23.352;2024-02-23T05:52:46;18.02;;;8.85;;
56830;SDS011;42713;42.676;23.352;2024-02-23T05:55:12;18.95;;;10.35;;
56830;SDS011;42713;42.676;23.352;2024-02-23T05:57:38;22.17;;;10.52;;
56830;SDS011;42713;42.676;23.352;2024-02-23T06:00:12;25.15;;;10.48;;
56830;SDS011;42713;42.676;23.352;2024-02-23T06:02:38;23.27;;;10.65;;
56830;SDS011;42713;42.676;23.352;2024-02-23T06:05:04;17.88;;;9.75;;
56830;SDS011;42713;42.676;23.352;2024-02-23T06:07:32;21.17;;;10.07;;
56830;SDS011;42713;42.676;23.352;2024-02-23T06:10:01;22.67;;;11.50;;
56830;SDS011;42713;42.676;23.352;2024-02-23T06:12:27;20.95;;;10.68;;
56830;SDS011;42713;42.676;23.352;2024-02-23T06:14:55;19.13;;;10.18;;
56830;SDS011;42713;42.676;23.352;2024-02-23T06:17:23;17.77;;;10.13;;
56830;SDS011;42713;42.676;23.352;2024-02-23T06:20:07;21.70;;;9.70;;
56830;SDS011;42713;42.676;23.352;2024-02-23T06:26:41;20.63;;;10.30;;
56830;SDS011;42713;42.676;23.352;2024-02-23T06:58:22;21.20;;;10.20;;
56830;SDS011;42713;42.676;23.352;2024-02-23T07:15:00;19.05;;;10.70;;
56830;SDS011;42713;42.676;23.352;2024-02-23T07:17:42;21.73;;;10.18;;
56830;SDS011;42713;42.676;23.352;2024-02-23T07:20:10;19.58;;;10.63;;
56830;SDS011;42713;42.676;23.352;2024-02-23T07:22:59;26.98;;;11.25;;
56830;SDS011;42713;42.676;23.352;2024-02-23T07:25:27;23.00;;;11.90;;
56830;SDS011;42713;42.676;23.352;2024-02-23T07:28:01;25.63;;;11.95;;
56830;SDS011;42713;42.676;23.352;2024-02-23T07:30:29;23.85;;;12.27;;
56830;SDS011;42713;42.676;23.352;2024-02-23T07:32:54;22.70;;;12.13;;
56830;SDS011;42713;42.676;23.352;2024-02-23T07:35:39;21.88;;;11.75;;
56830;SDS011;42713;42.676;23.352;2024-02-23T07:38:05;22.70;;;11.63;;
56830;SDS011;42713;42.676;23.352;2024-02-23T07:40:30;19.17;;;11.48;;
56830;SDS011;42713;42.676;23.352;2024-02-23T07:42:59;23.85;;;11.73;;
56830;SDS011;42713;42.676;23.352;2024-02-23T07:45:25;20.73;;;10.82;;
56830;SDS011;42713;42.676;23.352;2024-02-23T07:47:51;23.08;;;11.50;;
56830;SDS011;42713;42.676;23.352;2024-02-23T07:50:19;24.05;;;11.15;;
56830;SDS011;42713;42.676;23.352;2024-02-23T07:52:48;17.90;;;10.02;;
56830;SDS011;42713;42.676;23.352;2024-02-23T07:55:13;20.05;;;10.90;;
56830;SDS011;42713;42.676;23.352;2024-02-23T07:57:39;20.88;;;11.60;;
56830;SDS011;42713;42.676;23.352;2024-02-23T08:00:05;20.92;;;10.20;;
56830;SDS011;42713;42.676;23.352;2024-02-23T08:02:32;22.95;;;11.50;;
56830;SDS011;42713;42.676;23.352;2024-02-23T08:04:58;23.73;;;11.40;;
56830;SDS011;42713;42.676;23.352;2024-02-23T08:07:24;19.02;;;10.65;;
56830;SDS011;42713;42.676;23.352;2024-02-23T08:09:52;21.00;;;11.07;;
56830;SDS011;42713;42.676;23.352;2024-02-23T08:12:18;21.65;;;10.35;;
56830;SDS011;42713;42.676;23.352;2024-02-23T08:18:29;20.73;;;10.18;;
56830;SDS011;42713;42.676;23.352;2024-02-23T08:33:01;20.75;;;10.55;;
56830;SDS011;42713;42.676;23.352;2024-02-23T08:37:00;19.13;;;10.27;;
56830;SDS011;42713;42.676;23.352;2024-02-23T08:39:53;22.10;;;10.50;;
56830;SDS011;42713;42.676;23.352;2024-02-23T08:59:58;18.38;;;9.73;;
56830;SDS011;42713;42.676;23.352;2024-02-23T09:03:35;17.40;;;9.80;;
56830;SDS011;42713;42.676;23.352;2024-02-23T09:06:58;20.05;;;9.77;;
56830;SDS011;42713;42.676;23.352;2024-02-23T09:09:29;16.00;;;8.82;;
56830;SDS011;42713;42.676;23.352;2024-02-23T09:11:55;16.27;;;8.52;;
56830;SDS011;42713;42.676;23.352;2024-02-23T09:14:21;16.90;;;10.15;;
56830;SDS011;42713;42.676;23.352;2024-02-23T09:16:46;18.75;;;9.00;;
56830;SDS011;42713;42.676;23.352;2024-02-23T09:19:12;19.83;;;9.43;;
56830;SDS011;42713;42.676;23.352;2024-02-23T09:25:40;20.63;;;8.05;;
56830;SDS011;42713;42.676;23.352;2024-02-23T09:28:12;16.35;;;8.15;;
56830;SDS011;42713;42.676;23.352;2024-02-23T09:30:40;13.75;;;7.40;;
56830;SDS011;42713;42.676;23.352;2024-02-23T09:33:08;12.90;;;6.80;;
56830;SDS011;42713;42.676;23.352;2024-02-23T09:35:34;14.40;;;6.72;;
56830;SDS011;42713;42.676;23.352;2024-02-23T09:38:02;12.18;;;5.93;;
56830;SDS011;42713;42.676;23.352;2024-02-23T09:40:47;16.30;;;5.93;;
56830;SDS011;42713;42.676;23.352;2024-02-23T09:43:13;11.52;;;5.35;;
56830;SDS011;42713;42.676;23.352;2024-02-23T09:45:44;13.23;;;5.70;;
56830;SDS011;42713;42.676;23.352;2024-02-23T09:48:12;13.73;;;5.88;;
56830;SDS011;42713;42.676;23.352;2024-02-23T09:51:11;10.30;;;4.70;;
56830;SDS011;42713;42.676;23.352;2024-02-23T09:53:43;11.85;;;5.20;;
56830;SDS011;42713;42.676;23.352;2024-02-23T09:56:35;9.98;;;4.60;;
56830;SDS011;42713;42.676;23.352;2024-02-23T09:59:10;10.50;;;4.70;;
56830;SDS011;42713;42.676;23.352;2024-02-23T10:01:49;10.10;;;4.63;;
56830;SDS011;42713;42.676;23.352;2024-02-23T10:04:39;11.20;;;4.43;;
56830;SDS011;42713;42.676;23.352;2024-02-23T10:17:20;9.82;;;3.88;;
56830;SDS011;42713;42.676;23.352;2024-02-23T10:20:08;8.90;;;3.53;;
56830;SDS011;42713;42.676;23.352;2024-02-23T10:22:57;7.88;;;3.28;;
56830;SDS011;42713;42.676;23.352;2024-02-23T10:25:36;8.07;;;3.30;;
56830;SDS011;42713;42.676;23.352;2024-02-23T10:28:05;7.88;;;3.30;;
56830;SDS011;42713;42.676;23.352;2024-02-23T10:30:53;9.90;;;3.38;;
56830;SDS011;42713;42.676;23.352;2024-02-23T10:40:21;7.80;;;2.97;;
56830;SDS011;42713;42.676;23.352;2024-02-23T10:43:07;6.68;;;2.97;;
56830;SDS011;42713;42.676;23.352;2024-02-23T10:46:16;7.97;;;2.83;;
56830;SDS011;42713;42.676;23.352;2024-02-23T10:49:07;8.90;;;2.92;;
56830;SDS011;42713;42.676;23.352;2024-02-23T10:51:43;7.60;;;2.75;;
56830;SDS011;42713;42.676;23.352;2024-02-23T10:54:09;6.25;;;2.45;;
56830;SDS011;42713;42.676;23.352;2024-02-23T10:57:12;6.75;;;2.22;;
56830;SDS011;42713;42.676;23.352;2024-02-23T10:59:50;5.22;;;1.90;;
56830;SDS011;42713;42.676;23.352;2024-02-23T11:02:27;5.15;;;1.80;;
56830;SDS011;42713;42.676;23.352;2024-02-23T11:05:08;5.07;;;2.00;;
56830;SDS011;42713;42.676;23.352;2024-02-23T11:07:51;6.40;;;2.28;;
56830;SDS011;42713;42.676;23.352;2024-02-23T11:10:26;7.70;;;2.20;;
56830;SDS011;42713;42.676;23.352;2024-02-23T11:58:09;7.22;;;2.00;;
56830;SDS011;42713;42.676;23.352;2024-02-23T12:17:47;3.78;;;1.58;;
56830;SDS011;42713;42.676;23.352;2024-02-23T12:49:45;3.90;;;1.50;;
56830;SDS011;42713;42.676;23.352;2024-02-23T13:07:06;4.13;;;1.52;;
56830;SDS011;42713;42.676;23.352;2024-02-23T13:41:41;7.83;;;1.97;;
56830;SDS011;42713;42.676;23.352;2024-02-23T14:09:44;4.13;;;1.50;;
56830;SDS011;42713;42.676;23.352;2024-02-23T14:52:30;6.55;;;1.83;;
56830;SDS011;42713;42.676;23.352;2024-02-23T15:32:24;5.15;;;2.03;;
56830;SDS011;42713;42.676;23.352;2024-02-23T15:58:52;7.45;;;2.38;;
56830;SDS011;42713;42.676;23.352;2024-02-23T16:01:54;9.52;;;2.20;;
56830;SDS011;42713;42.676;23.352;2024-02-23T16:05:51;7.18;;;2.15;;
56830;SDS011;42713;42.676;23.352;2024-02-23T16:12:01;7.57;;;2.65;;
56830;SDS011;42713;42.676;23.352;2024-02-23T16:39:13;9.55;;;3.65;;
56830;SDS011;42713;42.676;23.352;2024-02-23T16:41:39;12.10;;;3.20;;
56830;SDS011;42713;42.676;23.352;2024-02-23T16:44:05;12.85;;;3.15;;
56830;SDS011;42713;42.676;23.352;2024-02-23T16:46:31;5.88;;;2.50;;
56830;SDS011;42713;42.676;23.352;2024-02-23T16:48:57;7.10;;;2.90;;
56830;SDS011;42713;42.676;23.352;2024-02-23T16:51:24;6.72;;;2.40;;
56830;SDS011;42713;42.676;23.352;2024-02-23T16:54:06;6.85;;;2.97;;
56830;SDS011;42713;42.676;23.352;2024-02-23T16:59:13;6.55;;;3.10;;
56830;SDS011;42713;42.676;23.352;2024-02-23T17:07:08;7.47;;;3.17;;
56830;SDS011;42713;42.676;23.352;2024-02-23T17:14:44;8.88;;;3.80;;
56830;SDS011;42713;42.676;23.352;2024-02-23T17:20:41;8.02;;;3.20;;
56830;SDS011;42713;42.676;23.352;2024-02-23T17:23:26;7.95;;;3.17;;
56830;SDS011;42713;42.676;23.352;2024-02-23T17:26:21;8.43;;;3.22;;
56830;SDS011;42713;42.676;23.352;2024-02-23T17:28:50;7.53;;;3.50;;
56830;SDS011;42713;42.676;23.352;2024-02-23T17:31:26;7.15;;;3.50;;
56830;SDS011;42713;42.676;23.352;2024-02-23T17:40:27;9.55;;;3.85;;
56830;SDS011;42713;42.676;23.352;2024-02-23T17:42:59;9.02;;;4.00;;
56830;SDS011;42713;42.676;23.352;2024-02-23T17:45:43;9.00;;;3.25;;
56830;SDS011;42713;42.676;23.352;2024-02-23T17:52:31;9.68;;;3.75;;
56830;SDS011;42713;42.676;23.352;2024-02-23T17:55:08;8.45;;;3.50;;
56830;SDS011;42713;42.676;23.352;2024-02-23T17:58:13;6.75;;;2.80;;
56830;SDS011;42713;42.676;23.352;2024-02-23T18:00:47;7.30;;;3.10;;
56830;SDS011;42713;42.676;23.352;2024-02-23T18:03:14;6.82;;;3.17;;
56830;SDS011;42713;42.676;23.352;2024-02-23T18:08:27;7.30;;;2.90;;
56830;SDS011;42713;42.676;23.352;2024-02-23T18:10:59;8.43;;;3.30;;
56830;SDS011;42713;42.676;23.352;2024-02-23T18:13:57;6.03;;;2.17;;
56830;SDS011;42713;42.676;23.352;2024-02-23T18:16:52;6.93;;;2.80;;
56830;SDS011;42713;42.676;23.352;2024-02-23T18:19:24;6.50;;;2.80;;
56830;SDS011;42713;42.676;23.352;2024-02-23T18:21:59;10.60;;;2.50;;
56830;SDS011;42713;42.676;23.352;2024-02-23T18:24:30;9.23;;;3.00;;
56830;SDS011;42713;42.676;23.352;2024-02-23T18:27:03;6.68;;;2.63;;
56830;SDS011;42713;42.676;23.352;2024-02-23T18:29:32;8.57;;;2.75;;
56830;SDS011;42713;42.676;23.352;2024-02-23T18:32:08;6.97;;;2.88;;
56830;SDS011;42713;42.676;23.352;2024-02-23T18:34:36;9.40;;;3.35;;
56830;SDS011;42713;42.676;23.352;2024-02-23T18:37:11;7.65;;;3.47;;
56830;SDS011;42713;42.676;23.352;2024-02-23T18:39:37;8.52;;;4.18;;
56830;SDS011;42713;42.676;23.352;2024-02-23T18:42:08;11.90;;;5.03;;
56830;SDS011;42713;42.676;23.352;2024-02-23T18:44:42;11.13;;;4.93;;
56830;SDS011;42713;42.676;23.352;2024-02-23T18:47:14;11.38;;;4.25;;
56830;SDS011;42713;42.676;23.352;2024-02-23T18:49:42;10.27;;;4.07;;
56830;SDS011;42713;42.676;23.352;2024-02-23T18:52:08;9.13;;;3.63;;
56830;SDS011;42713;42.676;23.352;2024-02-23T18:54:40;13.23;;;4.07;;
56830;SDS011;42713;42.676;23.352;2024-02-23T18:57:13;9.30;;;4.20;;
56830;SDS011;42713;42.676;23.352;2024-02-23T18:59:38;7.55;;;3.67;;
56830;SDS011;42713;42.676;23.352;2024-02-23T19:02:04;9.27;;;4.00;;
56830;SDS011;42713;42.676;23.352;2024-02-23T19:04:30;10.90;;;4.53;;
56830;SDS011;42713;42.676;23.352;2024-02-23T19:06:57;11.95;;;4.45;;
56830;SDS011;42713;42.676;23.352;2024-02-23T19:09:25;10.23;;;4.85;;
56830;SDS011;42713;42.676;23.352;2024-02-23T19:12:01;14.75;;;5.70;;
56830;SDS011;42713;42.676;23.352;2024-02-23T19:14:28;11.38;;;5.18;;
56830;SDS011;42713;42.676;23.352;2024-02-23T19:16:55;11.93;;;5.13;;
56830;SDS011;42713;42.676;23.352;2024-02-23T19:19:23;14.95;;;6.00;;
56830;SDS011;42713;42.676;23.352;2024-02-23T19:21:49;12.77;;;5.32;;
56830;SDS011;42713;42.676;23.352;2024-02-23T19:24:14;10.23;;;5.10;;
56830;SDS011;42713;42.676;23.352;2024-02-23T19:29:35;8.55;;;4.00;;
56830;SDS011;42713;42.676;23.352;2024-02-23T19:32:00;8.73;;;4.18;;
56830;SDS011;42713;42.676;23.352;2024-02-23T19:34:28;9.50;;;4.57;;
56830;SDS011;42713;42.676;23.352;2024-02-23T19:36:56;10.38;;;5.53;;
56830;SDS011;42713;42.676;23.352;2024-02-23T19:39:24;11.73;;;5.93;;
56830;SDS011;42713;42.676;23.352;2024-02-23T19:41:49;9.95;;;4.88;;
56830;SDS011;42713;42.676;23.352;2024-02-23T19:44:16;11.48;;;5.57;;
56830;SDS011;42713;42.676;23.352;2024-02-23T19:46:41;12.27;;;5.00;;
56830;SDS011;42713;42.676;23.352;2024-02-23T19:49:07;13.82;;;5.97;;
56830;SDS011;42713;42.676;23.352;2024-02-23T19:51:33;12.38;;;5.57;;
56830;SDS011;42713;42.676;23.352;2024-02-23T19:54:19;12.90;;;5.88;;
56830;SDS011;42713;42.676;23.352;2024-02-23T20:00:41;11.38;;;4.63;;
56830;SDS011;42713;42.676;23.352;2024-02-23T20:04:10;10.48;;;4.50;;
56830;SDS011;42713;42.676;23.352;2024-02-23T20:06:44;11.52;;;4.60;;
56830;SDS011;42713;42.676;23.352;2024-02-23T20:31:04;7.97;;;3.30;;
56830;SDS011;42713;42.676;23.352;2024-02-23T20:34:04;9.55;;;4.38;;
56830;SDS011;42713;42.676;23.352;2024-02-23T20:36:54;11.73;;;5.00;;
56830;SDS011;42713;42.676;23.352;2024-02-23T20:43:07;11.50;;;5.07;;
56830;SDS011;42713;42.676;23.352;2024-02-23T20:49:00;17.08;;;6.15;;
56830;SDS011;42713;42.676;23.352;2024-02-23T20:58:04;15.50;;;6.22;;
56830;SDS011;42713;42.676;23.352;2024-02-23T21:01:07;12.48;;;5.45;;
56830;SDS011;42713;42.676;23.352;2024-02-23T21:07:43;9.90;;;4.55;;
56830;SDS011;42713;42.676;23.352;2024-02-23T21:11:36;10.60;;;4.68;;
56830;SDS011;42713;42.676;23.352;2024-02-23T21:17:31;9.15;;;3.80;;
56830;SDS011;42713;42.676;23.352;2024-02-23T21:34:50;17.70;;;7.25;;
56830;SDS011;42713;42.676;23.352;2024-02-23T21:41:12;12.68;;;5.00;;
56830;SDS011;42713;42.676;23.352;2024-02-23T21:43:41;11.38;;;4.72;;
56830;SDS011;42713;42.676;23.352;2024-02-23T21:46:48;9.27;;;4.55;;
56830;SDS011;42713;42.676;23.352;2024-02-23T21:49:25;11.25;;;5.05;;
56830;SDS011;42713;42.676;23.352;2024-02-23T21:51:51;11.82;;;4.47;;
56830;SDS011;42713;42.676;23.352;2024-02-23T21:54:16;11.00;;;5.30;;
56830;SDS011;42713;42.676;23.352;2024-02-23T21:56:43;11.85;;;4.22;;
56830;SDS011;42713;42.676;23.352;2024-02-23T21:59:08;11.15;;;4.65;;
56830;SDS011;42713;42.676;23.352;2024-02-23T22:01:33;13.73;;;5.82;;
56830;SDS011;42713;42.676;23.352;2024-02-23T22:04:00;12.35;;;5.68;;
56830;SDS011;42713;42.676;23.352;2024-02-23T22:06:26;13.73;;;6.65;;
56830;SDS011;42713;42.676;23.352;2024-02-23T22:08:51;14.00;;;6.43;;
56830;SDS011;42713;42.676;23.352;2024-02-23T22:11:17;14.82;;;6.72;;
56830;SDS011;42713;42.676;23.352;2024-02-23T22:13:43;16.15;;;7.00;;
56830;SDS011;42713;42.676;23.352;2024-02-23T22:16:09;14.45;;;7.10;;
56830;SDS011;42713;42.676;23.352;2024-02-23T22:18:34;13.57;;;5.97;;
56830;SDS011;42713;42.676;23.352;2024-02-23T22:21:00;12.18;;;6.35;;
56830;SDS011;42713;42.676;23.352;2024-02-23T22:23:27;12.50;;;6.45;;
56830;SDS011;42713;42.676;23.352;2024-02-23T22:25:52;10.68;;;4.78;;
56830;SDS011;42713;42.676;23.352;2024-02-23T22:28:18;13.20;;;5.85;;
56830;SDS011;42713;42.676;23.352;2024-02-23T22:30:43;10.75;;;5.38;;
56830;SDS011;42713;42.676;23.352;2024-02-23T22:33:09;16.95;;;6.10;;
56830;SDS011;42713;42.676;23.352;2024-02-23T22:35:34;11.85;;;5.72;;
56830;SDS011;42713;42.676;23.352;2024-02-23T22:38:00;13.43;;;6.22;;
56830;SDS011;42713;42.676;23.352;2024-02-23T22:40:27;13.85;;;5.55;;
56830;SDS011;42713;42.676;23.352;2024-02-23T22:42:53;11.85;;;5.75;;
56830;SDS011;42713;42.676;23.352;2024-02-23T22:45:19;14.05;;;6.10;;
56830;SDS011;42713;42.676;23.352;2024-02-23T22:47:46;14.77;;;5.38;;
56830;SDS011;42713;42.676;23.352;2024-02-23T22:50:12;11.45;;;5.00;;
56830;SDS011;42713;42.676;23.352;2024-02-23T22:52:38;12.00;;;4.75;;
56830;SDS011;42713;42.676;23.352;2024-02-23T22:55:04;10.48;;;4.65;;
56830;SDS011;42713;42.676;23.352;2024-02-23T22:57:30;10.00;;;5.07;;
56830;SDS011;42713;42.676;23.352;2024-02-23T22:59:55;10.73;;;4.97;;
56830;SDS011;42713;42.676;23.352;2024-02-23T23:02:21;10.75;;;4.70;;